Time;durP1;ratioP1;P1;durP2;ratioP2;P2;SDS_P1;SDS_P2;PMS_P1;PMS_P2;Temp;Humidity;BMP_temperature;BMP_pressure;BME280_temperature;BME280_humidity;BME280_pressure;Samples;Min_cycle;Max_cycle;Signal;HPM_P1;HPM_P2
2023/04/18 03:01:37;;;;;;;16.23;12.47;;;7.90;99.90;;;;;;5386043;23;20237;-77
2023/04/18 03:04:03;;;;;;;15.67;12.73;;;8.00;99.90;;;;;;4971023;28;20177;-76
2023/04/18 03:06:30;;;;;;;16.77;15.17;;;8.00;99.90;;;;;;4973940;28;20340;-76
2023/04/18 03:08:56;;;;;;;20.17;18.43;;;8.10;99.90;;;;;;4965925;28;20185;-77
2023/04/18 03:11:22;;;;;;;18.57;16.63;;;8.10;99.90;;;;;;4952165;28;20197;-77
2023/04/18 03:13:47;;;;;;;15.37;13.97;;;8.10;99.90;;;;;;4955522;29;20181;-77
2023/04/18 03:16:13;;;;;;;15.83;14.43;;;8.10;99.90;;;;;;4976587;23;20241;-75
2023/04/18 03:18:39;;;;;;;16.23;13.30;;;8.10;99.90;;;;;;4953980;29;20182;-76
2023/04/18 03:21:06;;;;;;;15.10;13.00;;;8.20;99.90;;;;;;4955895;28;20200;-76
2023/04/18 03:23:32;;;;;;;13.97;12.23;;;8.20;99.90;;;;;;4930035;29;20557;-76
2023/04/18 03:25:57;;;;;;;14.93;13.30;;;8.20;99.90;;;;;;4936606;29;20206;-73
2023/04/18 03:28:23;;;;;;;14.93;13.27;;;8.20;99.90;;;;;;4935324;29;20187;-76
2023/04/18 03:30:49;;;;;;;14.73;13.43;;;8.20;99.90;;;;;;4937739;29;20182;-76
2023/04/18 03:33:16;;;;;;;14.93;13.43;;;8.20;99.90;;;;;;4935349;29;20183;-76
2023/04/18 03:35:41;;;;;;;16.47;14.80;;;8.20;99.90;;;;;;4936620;29;20678;-76
2023/04/18 03:38:07;;;;;;;17.23;15.57;;;8.20;99.90;;;;;;4937090;29;20210;-75
2023/04/18 03:40:33;;;;;;;17.37;15.67;;;8.30;99.90;;;;;;4934717;29;20186;-75
2023/04/18 03:42:59;;;;;;;16.33;14.67;;;8.30;99.90;;;;;;4935635;29;20197;-75
2023/04/18 03:45:24;;;;;;;16.23;14.63;;;8.30;99.90;;;;;;4934154;29;20745;-75
2023/04/18 03:47:50;;;;;;;16.80;15.10;;;8.20;99.90;;;;;;4935588;29;20214;-75
2023/04/18 03:50:16;;;;;;;17.03;15.33;;;8.30;99.90;;;;;;4935463;29;20174;-75
2023/04/18 03:52:42;;;;;;;16.33;14.83;;;8.30;99.90;;;;;;4935489;29;20179;-75
2023/04/18 03:55:08;;;;;;;17.63;15.83;;;8.30;99.90;;;;;;4935193;29;20732;-75
2023/04/18 03:57:33;;;;;;;18.93;15.33;;;8.30;99.90;;;;;;4935901;29;20197;-75
2023/04/18 03:59:59;;;;;;;16.67;15.07;;;8.30;99.90;;;;;;4929600;29;20205;-74
2023/04/18 04:02:26;;;;;;;16.70;15.13;;;8.30;99.90;;;;;;4931564;28;20650;-75
2023/04/18 04:04:51;;;;;;;16.07;14.50;;;8.30;99.90;;;;;;4936413;29;20388;-74
2023/04/18 04:07:17;;;;;;;16.70;14.80;;;8.30;99.90;;;;;;4935614;29;20241;-74
2023/04/18 04:09:43;;;;;;;16.97;15.27;;;8.20;99.90;;;;;;4936116;29;20226;-75
2023/04/18 04:12:09;;;;;;;17.47;15.67;;;8.20;99.90;;;;;;4936179;29;20278;-74
2023/04/18 04:14:34;;;;;;;16.97;15.37;;;8.20;99.90;;;;;;4935857;29;20238;-74
2023/04/18 04:17:00;;;;;;;15.90;14.27;;;8.20;99.90;;;;;;4936022;29;20761;-75
2023/04/18 04:19:26;;;;;;;16.73;15.20;;;8.20;99.90;;;;;;4934584;29;20187;-75
2023/04/18 04:21:51;;;;;;;15.90;14.30;;;8.10;99.90;;;;;;4935664;29;20194;-75
2023/04/18 04:24:17;;;;;;;14.27;12.63;;;8.10;99.90;;;;;;4936300;29;20186;-75
2023/04/18 04:26:43;;;;;;;14.37;12.87;;;8.10;99.90;;;;;;4934602;29;20305;-75
2023/04/18 04:29:09;;;;;;;14.47;12.93;;;8.10;99.90;;;;;;4934121;29;20273;-75
2023/04/18 04:31:35;;;;;;;17.33;13.97;;;8.20;99.90;;;;;;4935758;29;20269;-75
2023/04/18 04:34:02;;;;;;;16.30;13.20;;;8.20;99.90;;;;;;4934526;29;20279;-75
2023/04/18 04:36:28;;;;;;;15.83;14.23;;;8.20;99.90;;;;;;4934183;29;20218;-75
2023/04/18 04:38:53;;;;;;;16.97;14.73;;;8.20;99.90;;;;;;4935346;29;20191;-74
2023/04/18 04:41:21;;;;;;;16.87;14.83;;;8.30;99.90;;;;;;4935513;29;20233;-75
2023/04/18 04:43:46;;;;;;;17.60;15.57;;;8.30;99.90;;;;;;4935605;29;20281;-74
2023/04/18 04:46:13;;;;;;;17.20;15.40;;;8.30;99.90;;;;;;4934011;29;20305;-75
2023/04/18 04:48:39;;;;;;;19.13;15.50;;;8.40;99.90;;;;;;4935120;29;20191;-75
2023/04/18 04:51:05;;;;;;;16.90;14.83;;;8.40;99.90;;;;;;4934095;29;20675;-74
2023/04/18 04:53:31;;;;;;;15.80;14.20;;;8.50;99.90;;;;;;4934224;29;20179;-74
2023/04/18 04:55:57;;;;;;;17.17;15.53;;;8.50;99.90;;;;;;4934098;29;20209;-74
2023/04/18 04:58:23;;;;;;;16.97;15.27;;;8.50;99.90;;;;;;4933975;29;20193;-75
2023/04/18 05:00:51;;;;;;;16.73;15.00;;;8.50;99.90;;;;;;4933840;29;20550;-74
2023/04/18 05:03:17;;;;;;;15.27;13.73;;;8.50;99.90;;;;;;4934978;29;20178;-75
2023/04/18 05:05:44;;;;;;;17.00;15.40;;;8.50;99.90;;;;;;4945813;29;20226;-74
2023/04/18 05:08:09;;;;;;;17.57;15.87;;;8.50;99.90;;;;;;4945084;29;20185;-75
2023/04/18 05:10:35;;;;;;;14.53;13.07;;;8.60;99.90;;;;;;4938775;29;20182;-76
2023/04/18 05:13:02;;;;;;;16.60;15.00;;;8.70;99.90;;;;;;4935118;29;20245;-76
2023/04/18 05:15:29;;;;;;;16.37;14.20;;;8.80;99.90;;;;;;4933390;29;20217;-76
2023/04/18 05:17:54;;;;;;;16.10;13.93;;;8.70;99.90;;;;;;4934897;29;20246;-76
2023/04/18 05:20:20;;;;;;;17.60;13.87;;;8.70;99.90;;;;;;4935022;29;20182;-76
2023/04/18 05:22:46;;;;;;;17.43;14.53;;;8.70;99.90;;;;;;4933456;29;20208;-76
2023/04/18 05:25:12;;;;;;;16.07;14.23;;;8.70;99.90;;;;;;4934911;29;20202;-76
2023/04/18 05:27:38;;;;;;;15.27;13.47;;;8.80;99.90;;;;;;4934748;29;20175;-76
2023/04/18 05:30:04;;;;;;;16.67;14.17;;;8.80;99.90;;;;;;4934858;29;20193;-76
2023/04/18 05:32:30;;;;;;;12.50;11.20;;;8.90;99.90;;;;;;4933459;29;20186;-76
2023/04/18 05:34:55;;;;;;;19.17;17.20;;;8.90;99.90;;;;;;4934585;29;20189;-76
2023/04/18 05:37:21;;;;;;;27.83;25.43;;;9.00;99.90;;;;;;4934055;29;20217;-76
2023/04/18 05:39:47;;;;;;;37.83;35.03;;;9.00;99.90;;;;;;4934621;29;20210;-76
2023/04/18 05:42:13;;;;;;;31.57;29.00;;;9.00;99.90;;;;;;4934602;29;20190;-76
2023/04/18 05:44:38;;;;;;;35.47;32.87;;;9.10;99.90;;;;;;4933184;29;20186;-76
2023/04/18 05:47:04;;;;;;;49.23;45.93;;;9.10;99.90;;;;;;4932835;29;20221;-76
2023/04/18 05:49:31;;;;;;;50.47;47.07;;;9.10;99.90;;;;;;4933395;29;20188;-76
2023/04/18 05:51:57;;;;;;;45.50;42.10;;;8.90;99.90;;;;;;4933708;29;20213;-75
2023/04/18 05:54:26;;;;;;;32.10;29.30;;;8.80;99.90;;;;;;4932754;29;20237;-76
2023/04/18 05:56:52;;;;;;;27.50;24.60;;;8.80;99.90;;;;;;4932216;29;20679;-76
2023/04/18 05:59:19;;;;;;;19.37;17.47;;;8.80;99.90;;;;;;4932540;29;20182;-76
2023/04/18 06:01:45;;;;;;;20.77;18.73;;;8.80;99.90;;;;;;4933189;29;20178;-76
2023/04/18 06:04:11;;;;;;;18.27;16.37;;;8.80;99.90;;;;;;4933193;29;20194;-76
2023/04/18 06:06:37;;;;;;;17.73;15.10;;;8.80;99.90;;;;;;4934355;29;20210;-75
2023/04/18 06:09:03;;;;;;;17.80;15.80;;;8.80;99.90;;;;;;4933981;29;20554;-75
2023/04/18 06:11:28;;;;;;;19.17;17.07;;;8.90;99.90;;;;;;4934109;29;20175;-75
2023/04/18 06:13:54;;;;;;;21.70;19.63;;;9.00;99.90;;;;;;4933021;29;20713;-76
2023/04/18 06:16:21;;;;;;;35.50;32.87;;;9.10;99.90;;;;;;4932653;29;20221;-76
2023/04/18 06:18:47;;;;;;;48.37;44.97;;;9.20;99.90;;;;;;4933768;29;20654;-76
2023/04/18 06:21:13;;;;;;;32.20;29.57;;;9.30;99.90;;;;;;4932732;29;20336;-76
2023/04/18 06:23:39;;;;;;;27.83;25.40;;;9.30;99.90;;;;;;4933986;29;20193;-76
2023/04/18 06:26:06;;;;;;;17.63;16.00;;;9.40;99.90;;;;;;4932335;29;20222;-75
2023/04/18 06:28:31;;;;;;;26.17;23.87;;;9.30;99.90;;;;;;4932382;29;20325;-76
2023/04/18 06:30:57;;;;;;;26.27;24.23;;;9.30;99.90;;;;;;4934344;29;20277;-76
2023/04/18 06:33:23;;;;;;;17.30;15.70;;;9.40;99.90;;;;;;4934494;29;20194;-76
2023/04/18 06:35:49;;;;;;;17.60;13.03;;;9.60;99.90;;;;;;4934010;29;20205;-75
2023/04/18 06:38:15;;;;;;;15.13;13.33;;;9.50;99.90;;;;;;4933743;29;20190;-76
2023/04/18 06:40:41;;;;;;;14.93;12.47;;;9.60;99.90;;;;;;4932801;29;20194;-74
2023/04/18 06:43:06;;;;;;;15.17;13.57;;;9.60;99.90;;;;;;4934107;29;20194;-75
2023/04/18 06:45:32;;;;;;;14.87;13.37;;;9.60;99.90;;;;;;4932726;29;20765;-75
2023/04/18 06:47:58;;;;;;;15.67;14.07;;;9.70;99.90;;;;;;4933768;29;20182;-74
2023/04/18 06:50:27;;;;;;;14.63;13.20;;;9.70;99.90;;;;;;4933966;29;20224;-75
2023/04/18 06:52:53;;;;;;;15.77;14.17;;;9.80;99.90;;;;;;4934026;29;20539;-75
2023/04/18 06:55:19;;;;;;;16.00;13.50;;;9.90;99.90;;;;;;4934369;29;20206;-76
2023/04/18 06:57:45;;;;;;;22.70;20.77;;;10.10;99.90;;;;;;4932714;29;20187;-76
2023/04/18 07:00:11;;;;;;;20.00;18.43;;;10.20;99.90;;;;;;4933193;29;20343;-76
2023/04/18 07:02:38;;;;;;;22.37;20.40;;;10.20;99.90;;;;;;4932814;29;20202;-75
2023/04/18 07:05:05;;;;;;;17.33;15.90;;;10.10;99.90;;;;;;4934176;29;20199;-75
2023/04/18 07:07:31;;;;;;;16.00;14.60;;;10.30;99.90;;;;;;4933974;29;20560;-75
2023/04/18 07:09:57;;;;;;;15.97;14.40;;;10.10;99.90;;;;;;4935745;29;20201;-74
2023/04/18 07:12:24;;;;;;;27.07;24.87;;;9.90;99.90;;;;;;4935164;29;20214;-75
2023/04/18 07:14:50;;;;;;;26.83;24.33;;;9.80;99.90;;;;;;4932299;29;20221;-75
2023/04/18 07:17:16;;;;;;;19.83;18.00;;;9.80;99.90;;;;;;4933527;29;20637;-75
2023/04/18 07:19:42;;;;;;;24.87;22.93;;;9.90;99.90;;;;;;4932940;29;20198;-75
2023/04/18 07:22:08;;;;;;;25.40;23.07;;;10.00;99.90;;;;;;4934346;29;20715;-75
2023/04/18 07:24:35;;;;;;;28.67;26.40;;;9.80;99.90;;;;;;4933775;29;20194;-75
2023/04/18 07:27:02;;;;;;;23.53;21.37;;;9.80;99.90;;;;;;4932169;29;20276;-75
2023/04/18 07:29:28;;;;;;;25.17;22.97;;;9.80;99.90;;;;;;4932488;29;20186;-75
2023/04/18 07:31:54;;;;;;;22.27;20.13;;;9.80;99.90;;;;;;4932850;29;20189;-75
2023/04/18 07:34:20;;;;;;;24.93;22.77;;;9.80;99.90;;;;;;4934671;29;20178;-75
2023/04/18 07:36:46;;;;;;;26.63;24.23;;;9.90;99.90;;;;;;4935764;29;20765;-75
2023/04/18 07:39:12;;;;;;;25.20;23.13;;;10.10;99.90;;;;;;4936686;29;20287;-75
2023/04/18 07:41:38;;;;;;;18.70;16.70;;;10.20;99.90;;;;;;4935830;29;20210;-75
2023/04/18 07:44:04;;;;;;;17.90;16.00;;;10.30;99.90;;;;;;4936874;29;20556;-75
2023/04/18 07:46:31;;;;;;;19.70;17.80;;;10.30;99.90;;;;;;4935684;29;20224;-75
2023/04/18 07:48:57;;;;;;;19.93;18.03;;;10.50;99.90;;;;;;4935284;29;20213;-75
2023/04/18 07:51:25;;;;;;;39.87;37.07;;;10.70;99.90;;;;;;4936776;29;20178;-75
2023/04/18 07:53:51;;;;;;;41.93;38.73;;;10.70;99.90;;;;;;4936710;29;20182;-75
2023/04/18 07:56:17;;;;;;;42.50;39.43;;;11.00;99.90;;;;;;4935403;29;20210;-75
2023/04/18 07:58:43;;;;;;;27.77;25.43;;;11.30;99.90;;;;;;4934947;29;20278;-75
2023/04/18 08:01:12;;;;;;;16.63;14.87;;;11.40;99.90;;;;;;4936607;29;20189;-75
2023/04/18 08:03:38;;;;;;;16.00;14.30;;;11.40;99.90;;;;;;4936531;29;20186;-75
2023/04/18 08:06:04;;;;;;;16.03;14.50;;;11.60;99.90;;;;;;4935341;29;20273;-75
2023/04/18 08:08:30;;;;;;;17.57;15.73;;;11.70;99.90;;;;;;4934951;29;20183;-75
2023/04/18 08:10:56;;;;;;;18.13;15.80;;;11.60;99.90;;;;;;4936417;29;20178;-75
2023/04/18 08:13:21;;;;;;;13.40;12.13;;;11.60;99.90;;;;;;4934993;29;20791;-75
2023/04/18 08:15:47;;;;;;;14.90;13.40;;;11.70;99.90;;;;;;4936031;29;20222;-75
2023/04/18 08:18:13;;;;;;;16.87;12.73;;;11.70;99.90;;;;;;4934690;29;20221;-75
2023/04/18 08:20:39;;;;;;;16.60;14.37;;;11.70;99.90;;;;;;4935080;29;20186;-75
2023/04/18 08:23:06;;;;;;;14.23;12.73;;;12.00;99.90;;;;;;4936201;29;20340;-75
2023/04/18 08:25:32;;;;;;;17.63;15.80;;;12.30;99.90;;;;;;4935919;29;20209;-75
2023/04/18 08:27:58;;;;;;;15.67;14.00;;;12.40;99.90;;;;;;4936202;29;20643;-75
2023/04/18 08:30:23;;;;;;;19.57;17.23;;;12.30;99.90;;;;;;4936542;29;20193;-75
2023/04/18 08:32:49;;;;;;;16.13;14.67;;;12.30;99.90;;;;;;4934940;29;20181;-75
2023/04/18 08:35:15;;;;;;;15.13;12.80;;;12.30;99.90;;;;;;4935833;29;20194;-75
2023/04/18 08:37:42;;;;;;;15.83;13.67;;;12.10;99.90;;;;;;4935609;29;20277;-75
2023/04/18 08:40:08;;;;;;;17.13;15.43;;;11.90;99.90;;;;;;4936107;29;20186;-75
2023/04/18 08:42:35;;;;;;;17.83;16.13;;;11.80;99.90;;;;;;4935803;29;20667;-76
2023/04/18 08:45:01;;;;;;;15.13;13.17;;;11.80;99.90;;;;;;4935749;29;20245;-75
2023/04/18 08:47:30;;;;;;;14.83;11.20;;;11.80;99.90;;;;;;4935362;29;20218;-75
2023/04/18 08:49:57;;;;;;;13.10;11.70;;;11.60;99.90;;;;;;4935767;29;20215;-75
2023/04/18 08:52:25;;;;;;;17.33;13.73;;;11.60;99.90;;;;;;4935687;29;20186;-75
2023/04/18 08:54:51;;;;;;;12.43;11.17;;;11.70;99.90;;;;;;4935578;29;20629;-75
2023/04/18 08:57:22;;;;;;;13.17;11.60;;;11.80;99.90;;;;;;4935250;29;20214;-75
2023/04/18 08:59:49;;;;;;;14.87;11.77;;;11.80;99.90;;;;;;4935748;29;20236;-75
2023/04/18 09:02:15;;;;;;;16.80;14.87;;;11.80;99.90;;;;;;4935671;29;20183;-75
2023/04/18 09:04:54;;;;;;;15.63;14.07;;;11.90;99.90;;;;;;4934323;29;20293;-75
2023/04/18 09:07:29;;;;;;;17.47;15.77;;;11.90;99.90;;;;;;4947238;29;20214;-74
2023/04/18 09:09:56;;;;;;;18.93;15.70;;;11.80;99.90;;;;;;4951114;29;20190;-74
2023/04/18 09:12:24;;;;;;;14.73;13.43;;;11.90;99.90;;;;;;4943969;29;20304;-74
2023/04/18 09:14:55;;;;;;;17.97;16.20;;;12.00;99.90;;;;;;4935621;29;20253;-74
2023/04/18 09:17:42;;;;;;;13.30;11.97;;;12.10;99.90;;;;;;4990832;23;20240;-73
2023/04/18 09:20:10;;;;;;;16.40;14.77;;;12.10;99.90;;;;;;4973779;28;20240;-75
2023/04/18 09:22:50;;;;;;;14.73;12.80;;;12.20;99.90;;;;;;4972496;28;20177;-75
2023/04/18 09:25:28;;;;;;;13.77;12.37;;;12.50;99.90;;;;;;4973514;28;20667;-75
2023/04/18 09:27:59;;;;;;;15.60;13.97;;;12.80;99.90;;;;;;4975219;28;20299;-75
2023/04/18 09:30:32;;;;;;;15.27;13.80;;;12.90;99.90;;;;;;4974982;28;20219;-75
2023/04/18 09:33:02;;;;;;;15.80;12.83;;;12.90;99.90;;;;;;4972865;28;20185;-75
2023/04/18 09:35:28;;;;;;;13.97;12.17;;;13.10;99.90;;;;;;4973434;28;20189;-75
2023/04/18 09:37:54;;;;;;;13.37;11.87;;;13.30;99.90;;;;;;4973117;28;20181;-75
2023/04/18 09:40:20;;;;;;;21.27;19.47;;;13.40;99.90;;;;;;4972222;28;20181;-75
2023/04/18 09:42:47;;;;;;;18.37;16.53;;;13.30;99.90;;;;;;4973591;28;20177;-75
2023/04/18 09:45:13;;;;;;;18.73;17.13;;;13.30;99.90;;;;;;4973197;28;20288;-75
2023/04/18 09:47:38;;;;;;;14.73;13.23;;;13.20;99.90;;;;;;4972714;28;20311;-75
2023/04/18 09:50:06;;;;;;;12.53;10.70;;;13.00;99.90;;;;;;4973675;28;20231;-75
2023/04/18 09:52:40;;;;;;;11.93;10.63;;;13.00;99.90;;;;;;4972247;28;20538;-75
2023/04/18 09:55:08;;;;;;;11.57;10.37;;;12.90;99.90;;;;;;4971915;28;20608;-75
2023/04/18 09:57:36;;;;;;;12.93;11.53;;;12.90;99.90;;;;;;4972183;28;20236;-75
2023/04/18 10:00:16;;;;;;;13.93;10.37;;;13.00;99.90;;;;;;4973114;28;20565;-75
2023/04/18 10:03:07;;;;;;;13.00;11.67;;;13.20;99.90;;;;;;4971905;28;20276;-74
2023/04/18 10:05:35;;;;;;;21.40;19.80;;;13.40;99.90;;;;;;4971477;28;20214;-74
2023/04/18 10:08:02;;;;;;;18.30;16.87;;;13.60;99.90;;;;;;4971349;28;20177;-75
2023/04/18 10:10:28;;;;;;;17.27;15.80;;;13.80;99.90;;;;;;4972572;28;20181;-74
2023/04/18 10:12:58;;;;;;;21.93;20.13;;;13.90;99.90;;;;;;4972596;28;20196;-74
2023/04/18 10:15:26;;;;;;;40.00;37.50;;;14.20;99.90;;;;;;4972270;28;20228;-74
2023/04/18 10:18:00;;;;;;;68.63;64.93;;;14.40;99.90;;;;;;4971024;28;20184;-74
2023/04/18 10:20:28;;;;;;;61.00;57.57;;;14.30;99.90;;;;;;4972492;28;20284;-74
2023/04/18 10:22:55;;;;;;;77.30;72.97;;;14.20;99.90;;;;;;4972561;28;20189;-76
2023/04/18 10:25:48;;;;;;;73.37;69.47;;;14.30;99.90;;;;;;4971307;28;20267;-75
2023/04/18 10:28:14;;;;;;;67.63;63.80;;;14.40;99.90;;;;;;4969394;28;20577;-73
2023/04/18 10:30:40;;;;;;;70.00;65.97;;;14.50;99.90;;;;;;4971341;28;20672;-73
2023/04/18 10:33:26;;;;;;;73.87;69.73;;;14.50;99.90;;;;;;4971260;28;20220;-74
2023/04/18 10:35:59;;;;;;;80.87;76.63;;;14.30;99.90;;;;;;4971377;28;20209;-74
2023/04/18 10:38:26;;;;;;;66.13;62.37;;;14.10;99.90;;;;;;4970865;28;20185;-73
2023/04/18 10:40:52;;;;;;;57.20;53.93;;;13.90;99.90;;;;;;4971311;28;20271;-74
2023/04/18 10:43:18;;;;;;;55.13;52.07;;;14.00;99.90;;;;;;4972715;28;20311;-74
2023/04/18 10:45:44;;;;;;;61.83;58.20;;;14.10;99.90;;;;;;4972249;28;20264;-74
2023/04/18 10:48:23;;;;;;;74.40;70.40;;;14.20;99.90;;;;;;4971993;28;20173;-75
2023/04/18 10:51:19;;;;;;;72.50;68.60;;;14.40;99.90;;;;;;4971475;28;20184;-76
2023/04/18 10:53:52;;;;;;;67.17;63.33;;;14.40;99.90;;;;;;4972688;28;20196;-76
2023/04/18 10:56:18;;;;;;;57.37;54.07;;;14.50;99.90;;;;;;4969102;28;20217;-74
2023/04/18 10:58:56;;;;;;;49.00;46.03;;;14.70;99.90;;;;;;4967766;28;20708;-75
2023/04/18 11:01:27;;;;;;;41.73;39.37;;;14.80;99.90;;;;;;4971133;28;20256;-75
2023/04/18 11:03:56;;;;;;;36.93;34.77;;;15.00;99.90;;;;;;4956190;28;20724;-74
2023/04/18 11:06:24;;;;;;;35.80;33.57;;;14.80;99.90;;;;;;4952795;28;20229;-75
2023/04/18 11:08:50;;;;;;;54.53;51.33;;;14.50;99.90;;;;;;4953134;28;20186;-74
2023/04/18 11:11:16;;;;;;;69.17;65.37;;;14.00;99.90;;;;;;4955140;29;20269;-74
2023/04/18 11:13:56;;;;;;;68.30;64.50;;;14.00;99.90;;;;;;4955770;29;20186;-74
2023/04/18 11:16:29;;;;;;;44.23;41.53;;;13.80;99.90;;;;;;4973399;28;20312;-74
2023/04/18 11:18:55;;;;;;;21.83;20.40;;;13.60;99.90;;;;;;4977117;28;20189;-73
2023/04/18 11:21:26;;;;;;;17.70;16.30;;;13.50;99.90;;;;;;4975682;28;20268;-74
2023/04/18 11:23:52;;;;;;;29.20;27.33;;;13.50;99.90;;;;;;4976353;28;20558;-74
2023/04/18 11:26:18;;;;;;;33.70;31.73;;;13.80;99.90;;;;;;4974258;28;20308;-74
2023/04/18 11:28:50;;;;;;;58.73;55.70;;;14.10;99.90;;;;;;4975148;28;20203;-74
2023/04/18 11:31:16;;;;;;;62.07;58.57;;;14.40;99.90;;;;;;4974291;28;20189;-74
2023/04/18 11:33:45;;;;;;;68.90;65.13;;;14.20;99.90;;;;;;4974998;28;20271;-74
2023/04/18 11:36:12;;;;;;;69.13;65.30;;;14.20;99.90;;;;;;4971601;28;20215;-73
2023/04/18 11:38:39;;;;;;;59.27;55.93;;;14.20;99.90;;;;;;4973849;28;20232;-74
2023/04/18 11:41:11;;;;;;;58.87;55.63;;;14.20;99.90;;;;;;4975316;28;20220;-74
2023/04/18 11:43:42;;;;;;;49.33;46.47;;;14.20;99.90;;;;;;4974132;28;20189;-74
2023/04/18 11:46:08;;;;;;;35.73;33.43;;;14.40;99.90;;;;;;4973782;28;20296;-73
2023/04/18 11:48:41;;;;;;;35.93;33.63;;;14.40;99.90;;;;;;4973477;28;20275;-74
2023/04/18 11:51:28;;;;;;;36.40;34.23;;;14.50;99.90;;;;;;4975062;28;20185;-74
2023/04/18 11:53:53;;;;;;;31.93;30.03;;;14.60;99.90;;;;;;4974772;28;20555;-74
2023/04/18 11:56:19;;;;;;;19.17;17.67;;;14.90;99.90;;;;;;4974821;28;20205;-73
2023/04/18 11:58:45;;;;;;;13.97;12.87;;;15.10;99.90;;;;;;4973235;28;20189;-74
2023/04/18 12:01:19;;;;;;;15.77;14.67;;;15.10;99.90;;;;;;4974954;28;20741;-74
2023/04/18 12:04:00;;;;;;;7.53;6.83;;;15.20;99.90;;;;;;4974853;28;20188;-74
2023/04/18 12:06:27;;;;;;;8.23;7.53;;;15.10;99.90;;;;;;4974837;28;20220;-74
2023/04/18 12:09:04;;;;;;;8.63;7.73;;;14.90;99.90;;;;;;4973347;28;20173;-75
2023/04/18 12:11:30;;;;;;;8.77;8.07;;;15.50;99.90;;;;;;4974586;28;20181;-75
2023/04/18 12:13:55;;;;;;;8.60;7.90;;;15.90;99.90;;;;;;4975311;28;20177;-76
2023/04/18 12:16:26;;;;;;;8.20;7.03;;;16.20;99.90;;;;;;4974314;28;20216;-75
2023/04/18 12:18:59;;;;;;;7.97;7.27;;;16.10;99.90;;;;;;4968401;28;20277;-73
2023/04/18 12:21:28;;;;;;;7.47;6.77;;;15.90;99.90;;;;;;4957049;28;20245;-73
2023/04/18 12:23:54;;;;;;;6.53;6.03;;;15.90;99.90;;;;;;4955176;29;20186;-72
2023/04/18 12:26:23;;;;;;;8.80;8.17;;;15.40;99.90;;;;;;4972472;28;20219;-74
2023/04/18 12:28:50;;;;;;;8.77;8.07;;;15.00;99.90;;;;;;4974096;28;20204;-74
2023/04/18 12:31:16;;;;;;;8.70;7.90;;;14.80;99.90;;;;;;4973081;28;20181;-74
2023/04/18 12:33:42;;;;;;;8.70;7.90;;;15.00;99.90;;;;;;4974074;28;20268;-74
2023/04/18 12:36:09;;;;;;;7.80;7.30;;;15.40;99.90;;;;;;4974269;28;20344;-74
2023/04/18 12:38:35;;;;;;;8.67;8.07;;;15.40;99.90;;;;;;4973730;28;20296;-73
2023/04/18 12:41:01;;;;;;;7.23;6.60;;;15.50;99.90;;;;;;4972813;28;20189;-74
2023/04/18 12:43:27;;;;;;;6.27;5.77;;;15.70;99.90;;;;;;4974141;28;20184;-74
2023/04/18 12:45:52;;;;;;;7.03;5.83;;;15.50;99.90;;;;;;4974202;28;20710;-74
2023/04/18 12:48:18;;;;;;;6.00;5.60;;;15.40;99.90;;;;;;4972684;28;20596;-74
2023/04/18 12:50:44;;;;;;;6.70;6.20;;;15.60;99.90;;;;;;4973935;28;20185;-74
2023/04/18 12:53:10;;;;;;;7.53;6.93;;;15.90;99.90;;;;;;4974103;28;20217;-75
2023/04/18 12:55:35;;;;;;;7.47;6.97;;;15.80;99.90;;;;;;4972463;28;20205;-74
2023/04/18 12:58:02;;;;;;;7.97;7.37;;;16.00;99.90;;;;;;4972450;28;20248;-74
2023/04/18 13:00:31;;;;;;;6.67;6.27;;;16.00;99.90;;;;;;4972662;28;20177;-74
2023/04/18 13:02:57;;;;;;;7.30;6.80;;;16.00;99.90;;;;;;4972759;28;20609;-74
2023/04/18 13:05:25;;;;;;;6.67;6.30;;;16.00;99.90;;;;;;4974998;28;20645;-75
2023/04/18 13:07:52;;;;;;;6.67;6.27;;;15.90;99.90;;;;;;4972687;28;20217;-74
2023/04/18 13:10:20;;;;;;;7.30;6.90;;;15.90;99.90;;;;;;4973905;28;20185;-74
2023/04/18 13:12:47;;;;;;;7.83;7.33;;;16.50;99.90;;;;;;4973745;28;20177;-74
2023/04/18 13:15:14;;;;;;;7.77;7.13;;;16.20;99.90;;;;;;4973428;28;20181;-74
2023/04/18 13:17:41;;;;;;;6.33;5.90;;;16.20;99.90;;;;;;4973085;28;20591;-74
2023/04/18 13:20:12;;;;;;;8.27;7.67;;;16.20;99.90;;;;;;4972244;28;20311;-74
2023/04/18 13:22:39;;;;;;;8.07;7.47;;;16.00;99.90;;;;;;4973631;28;20185;-74
2023/04/18 13:25:07;;;;;;;7.07;6.47;;;15.60;99.90;;;;;;4973047;28;20193;-74
2023/04/18 13:27:33;;;;;;;8.73;7.50;;;15.30;99.90;;;;;;4972869;28;20304;-74
2023/04/18 13:29:59;;;;;;;7.80;7.30;;;15.20;99.90;;;;;;4971890;28;20199;-74
2023/04/18 13:32:25;;;;;;;8.17;7.53;;;15.30;99.90;;;;;;4965468;28;20185;-74
2023/04/18 13:34:51;;;;;;;7.30;6.87;;;15.50;99.90;;;;;;4954429;28;20557;-74
2023/04/18 13:37:17;;;;;;;8.77;8.00;;;15.40;99.90;;;;;;4971833;28;20196;-74
2023/04/18 13:39:43;;;;;;;7.70;7.17;;;15.20;99.90;;;;;;4973471;28;20185;-73
2023/04/18 13:42:09;;;;;;;8.40;7.70;;;15.10;99.90;;;;;;4972479;28;20254;-76
2023/04/18 13:44:36;;;;;;;7.43;6.83;;;15.10;99.90;;;;;;4969770;28;20199;-75
2023/04/18 13:47:03;;;;;;;9.33;8.63;;;14.90;99.90;;;;;;4971784;28;20217;-75
2023/04/18 13:49:30;;;;;;;8.23;7.57;;;14.80;99.90;;;;;;4972822;28;20558;-75
2023/04/18 13:51:56;;;;;;;8.43;7.47;;;14.90;99.90;;;;;;4972227;28;20192;-75
2023/04/18 13:54:26;;;;;;;7.63;7.00;;;15.00;99.90;;;;;;4973239;28;20181;-74
2023/04/18 13:56:56;;;;;;;8.50;7.90;;;15.20;99.90;;;;;;4971344;28;20208;-75
2023/04/18 13:59:25;;;;;;;7.50;6.90;;;15.50;99.90;;;;;;4973336;28;20626;-74
2023/04/18 14:01:53;;;;;;;8.17;7.57;;;15.50;99.90;;;;;;4971599;28;20292;-74
2023/04/18 14:04:22;;;;;;;7.83;7.23;;;15.80;99.90;;;;;;4971580;28;20275;-74
2023/04/18 14:06:49;;;;;;;7.63;7.10;;;15.80;99.90;;;;;;4972608;28;20217;-74
2023/04/18 14:09:15;;;;;;;7.00;6.50;;;15.90;99.90;;;;;;4972307;28;20188;-74
2023/04/18 14:11:42;;;;;;;7.37;6.87;;;15.70;99.90;;;;;;4971393;28;20188;-76
2023/04/18 14:14:07;;;;;;;7.67;7.17;;;15.50;99.90;;;;;;4971591;28;20208;-75
2023/04/18 14:16:33;;;;;;;7.87;7.37;;;15.70;99.90;;;;;;4971326;28;20272;-75
2023/04/18 14:19:00;;;;;;;8.37;7.67;;;16.00;99.90;;;;;;4972840;28;20215;-76
2023/04/18 14:21:27;;;;;;;8.30;7.80;;;15.90;99.90;;;;;;4974297;28;20188;-74
2023/04/18 14:23:53;;;;;;;11.90;11.20;;;16.10;99.90;;;;;;4973117;28;20217;-74
2023/04/18 14:26:19;;;;;;;13.07;12.10;;;16.20;99.90;;;;;;4971280;28;20225;-75
2023/04/18 14:28:45;;;;;;;13.57;12.67;;;16.30;99.90;;;;;;4972126;28;20637;-74
2023/04/18 14:31:12;;;;;;;13.57;12.77;;;16.30;99.90;;;;;;4971548;28;20240;-74
2023/04/18 14:33:39;;;;;;;10.97;10.37;;;16.30;99.90;;;;;;4972437;28;20180;-75
2023/04/18 14:36:05;;;;;;;13.17;12.40;;;16.40;99.90;;;;;;4970990;28;20209;-74
2023/04/18 14:38:31;;;;;;;13.20;12.33;;;16.40;99.90;;;;;;4972360;28;20193;-74
2023/04/18 14:40:57;;;;;;;14.23;13.30;;;16.40;99.90;;;;;;4972561;28;20300;-74
2023/04/18 14:43:24;;;;;;;12.57;11.87;;;16.20;99.90;;;;;;4975476;28;20177;-74
2023/04/18 14:45:50;;;;;;;15.03;14.13;;;16.30;99.90;;;;;;4975358;28;20580;-74
2023/04/18 14:48:16;;;;;;;13.33;12.43;;;16.40;99.90;;;;;;4976057;28;20223;-73
2023/04/18 14:50:42;;;;;;;14.60;13.77;;;16.40;99.90;;;;;;4975270;28;20219;-73
2023/04/18 14:53:09;;;;;;;13.63;12.83;;;16.30;99.90;;;;;;4978350;28;20173;-74
2023/04/18 14:55:35;;;;;;;13.37;12.53;;;16.20;99.90;;;;;;4978213;28;20219;-75
2023/04/18 14:58:01;;;;;;;12.47;11.77;;;16.30;99.90;;;;;;4977801;28;20712;-75
2023/04/18 15:00:27;;;;;;;14.23;13.53;;;16.50;99.90;;;;;;4975755;28;20219;-75
2023/04/18 15:02:52;;;;;;;13.87;12.97;;;16.40;99.90;;;;;;4975683;28;20177;-73
2023/04/18 15:05:22;;;;;;;14.40;13.10;;;16.10;99.90;;;;;;4976098;28;20187;-74
2023/04/18 15:07:51;;;;;;;13.97;13.17;;;15.80;99.90;;;;;;4975542;28;20607;-74
2023/04/18 15:10:17;;;;;;;12.97;12.17;;;15.80;99.90;;;;;;4974902;28;20239;-74
2023/04/18 15:12:45;;;;;;;15.70;14.70;;;15.70;99.90;;;;;;4975952;28;20182;-74
2023/04/18 15:15:12;;;;;;;10.77;10.17;;;15.40;99.90;;;;;;4976055;28;20646;-74
2023/04/18 15:17:37;;;;;;;9.07;7.63;;;15.20;99.90;;;;;;4975342;28;20200;-74
2023/04/18 15:20:06;;;;;;;7.40;6.80;;;15.00;99.90;;;;;;4974851;28;20661;-74
2023/04/18 15:22:32;;;;;;;7.23;6.77;;;14.90;99.90;;;;;;4975887;28;20284;-75
2023/04/18 15:24:58;;;;;;;6.40;6.00;;;14.80;99.90;;;;;;4975619;28;20612;-74
2023/04/18 15:27:24;;;;;;;6.57;6.07;;;14.90;99.90;;;;;;4975260;28;20248;-75
2023/04/18 15:29:50;;;;;;;6.87;6.47;;;14.90;99.90;;;;;;4975671;28;20192;-75
2023/04/18 15:32:16;;;;;;;7.63;7.03;;;14.80;99.90;;;;;;4974470;28;20173;-75
2023/04/18 15:34:42;;;;;;;8.10;7.60;;;14.80;99.90;;;;;;4975554;28;20185;-75
2023/04/18 15:37:08;;;;;;;7.60;7.10;;;14.80;99.90;;;;;;4973897;28;20577;-76